NOAA Weather Radio

Lightning Safety

Turn Around Don't Drown
Storm Ready
SkyWarn
WACO REGIONAL AIRPORT, TX, United States (KACT) 31-36N 97-13W 151M
Apr 18, 2014 - 10:51 AM EDT / 2014.04.18 1451 UTC
Wind: from the NE (050 degrees) at 3 MPH (3 KT):0
Visibility: 10 mile(s):0
Sky conditions: clear
Temperature: 64.0 F (17.8 C)
Dew Point: 54.0 F (12.2 C)
Relative Humidity: 69%
Pressure (altimeter): 30.22 in. Hg (1023 hPa)
Pressure tendency: 0.03 inches (1.1 hPa) higher than three hours ago
ob: KACT 181451Z 05003KT 10SM CLR 18/12 A3022 RMK AO2 SLP229 T01780122 51011
cycle: 15